Corona — V7EL5 — position and weather

sailwx.info

Track history (hours):
 
Tides and Currents Weather Stations Pressure Air Temp Water Temp Dewpoint Dewpoint Depression Visibility Wind Speed Wind Dir Waves Ship Positions

Corona

Last reported at 2017-Nov-17 20:59 UTC. Time now 2017-Nov-17 21:19 UTC.
Position N 59°53' E 030°11'.

Length 187 m; draft 6.4 m.

Type: Cargo ship. MMSI: 538005490.

Date/timePositionNaut miles runAvg speedWind from/ knotsBaromVisibWave heightAir tempDewpointWater temp
2017-Nov-17 20:59N 59°53' E 030°11'0 0.0
2017-Nov-17 20:29N 59°53' E 030°11'0 0.0
2017-Nov-17 19:59N 59°53' E 030°11'0 0.0
2017-Nov-17 19:29N 59°53' E 030°11'0 0.0
2017-Nov-17 18:59N 59°53' E 030°11'0 0.0
2017-Nov-17 18:29N 59°53' E 030°11'0 0.0
2017-Nov-17 18:00N 59°53' E 030°11'0 0.0
2017-Nov-17 17:30N 59°53' E 030°11'0 0.0
2017-Nov-17 17:00N 59°53' E 030°11'0 0.0
2017-Nov-17 16:30N 59°53' E 030°11'0 0.0
2017-Nov-17 16:00N 59°53' E 030°11'0 0.0
2017-Nov-17 15:30N 59°53' E 030°11'0 0.0
2017-Nov-17 14:57N 59°53' E 030°11'0 0.0
2017-Nov-17 14:30N 59°53' E 030°11'0 0.0
2017-Nov-17 14:00N 59°53' E 030°11'0 0.0
2017-Nov-17 13:30N 59°53' E 030°11'0 0.0
2017-Nov-17 13:00N 59°53' E 030°11'0 0.0
2017-Nov-17 12:31N 59°53' E 030°11'0 0.0
2017-Nov-17 12:00N 59°53' E 030°11'0 0.0
2017-Nov-17 11:28N 59°53' E 030°11'0 0.0
2017-Nov-17 10:58N 59°53' E 030°11'0 0.0
2017-Nov-17 10:30N 59°53' E 030°11'0 0.0
2017-Nov-17 09:57N 59°53' E 030°11'0 0.0
2017-Nov-17 09:31N 59°53' E 030°11'0 0.0
2017-Nov-17 09:00N 59°53' E 030°11'0 0.0
2017-Nov-17 08:30N 59°53' E 030°11'0 0.0
2017-Nov-17 08:00N 59°53' E 030°11'0 0.0
2017-Nov-17 07:30N 59°53' E 030°11'0 0.0
2017-Nov-17 07:00N 59°53' E 030°11'0 0.0
2017-Nov-17 06:27N 59°53' E 030°11'0 0.0
2017-Nov-17 06:00N 59°53' E 030°11'0 0.0
2017-Nov-17 05:27N 59°53' E 030°11'0 0.0
2017-Nov-17 04:57N 59°53' E 030°11'0 0.0
2017-Nov-17 04:30N 59°53' E 030°11'0 0.0
2017-Nov-17 04:00N 59°53' E 030°11'0 0.0
2017-Nov-17 03:30N 59°53' E 030°11'0 0.0
2017-Nov-17 03:00N 59°53' E 030°11'0 0.0
2017-Nov-17 02:30N 59°53' E 030°11'0 0.0
2017-Nov-17 02:00N 59°53' E 030°11'0 0.0
2017-Nov-17 01:30N 59°53' E 030°11'0 0.0
2017-Nov-17 01:00N 59°53' E 030°11'0 0.0
2017-Nov-17 00:30N 59°53' E 030°11'0 0.0
2017-Nov-17 00:00N 59°53' E 030°11'0 0.0
2017-Nov-16 23:30N 59°53' E 030°11'0 0.0
2017-Nov-16 22:57N 59°53' E 030°11'0 0.0
2017-Nov-16 22:30N 59°53' E 030°11'0 0.0
2017-Nov-16 22:00N 59°53' E 030°11'0 0.0
2017-Nov-16 21:31N 59°53' E 030°11'0 0.0
2017-Nov-16 21:00N 59°53' E 030°11'0 0.0
2017-Nov-16 20:30N 59°53' E 030°11'0 0.0
2017-Nov-16 19:52N 59°53' E 030°11'0 0.0
2017-Nov-16 19:28N 59°53' E 030°11'0 0.0
2017-Nov-16 18:58N 59°53' E 030°11'0 0.0
2017-Nov-16 18:23N 59°53' E 030°11'0 0.0
2017-Nov-16 17:58N 59°53' E 030°11'0 0.0
2017-Nov-16 17:28N 59°53' E 030°11'0 0.0
2017-Nov-16 16:58N 59°53' E 030°11'0 0.0
2017-Nov-16 16:30N 59°53' E 030°11'0 0.0
2017-Nov-16 16:00N 59°53' E 030°11'0 0.0
2017-Nov-16 15:30N 59°53' E 030°11'0 0.4
2017-Nov-16 15:00N 59°53' E 030°12'2 4.1
2017-Nov-16 14:30N 59°54' E 030°08'4 7.0
2017-Nov-16 14:00N 59°55' E 030°01'510.3
2017-Nov-16 13:30N 59°57' E 029°52'510.2
2017-Nov-16 13:00N 59°59' E 029°43'510.4
2017-Nov-16 12:30N 60°01' E 029°33'4 7.2
2017-Nov-16 11:53N 60°01' E 029°24'1 0.7
2017-Nov-16 10:54N 60°02' E 029°24'0 0.1
2017-Nov-16 10:27N 60°02' E 029°24'0 0.0
2017-Nov-16 09:58N 60°02' E 029°24'0 0.0
2017-Nov-16 09:31N 60°02' E 029°24'1 1.5
2017-Nov-16 08:52N 60°02' E 029°22'3 8.3
2017-Nov-16 08:28N 60°02' E 029°15'611.8
2017-Nov-16 08:00N 60°02' E 029°04'612.1
2017-Nov-16 07:30N 60°02' E 028°53'612.1
2017-Nov-16 07:00N 60°02' E 028°40'612.1
2017-Nov-16 06:30N 60°03' E 028°28'611.9
2017-Nov-16 06:00N 60°06' E 028°18'611.7
2017-Nov-16 05:30N 60°08' E 028°07'612.1
2017-Nov-16 05:00N 60°10' E 027°56'611.4
2017-Nov-16 04:31N 60°10' E 027°44'611.4
2017-Nov-16 04:00N 60°07' E 027°34'611.6
2017-Nov-16 03:30N 60°04' E 027°24'611.7
2017-Nov-16 03:00N 60°01' E 027°14'611.6
2017-Nov-16 02:31N 59°58' E 027°04'611.9
2017-Nov-16 02:01N 59°59' E 026°53'612.2
2017-Nov-16 01:31N 59°59' E 026°41'612.1
2017-Nov-16 01:00N 59°58' E 026°29'612.2
2017-Nov-16 00:30N 59°57' E 026°17'2512.2
2017-Nov-15 22:27N 59°51' E 025°28'612.5
2017-Nov-15 22:00N 59°50' E 025°17'712.5
2017-Nov-15 21:27N 59°48' E 025°04'612.6
2017-Nov-15 21:00N 59°47' E 024°53'713.6
2017-Nov-15 20:30N 59°45' E 024°40'611.7
2017-Nov-15 20:00N 59°44' E 024°28'612.5
2017-Nov-15 19:30N 59°43' E 024°16'712.6
2017-Nov-15 18:58N 59°41' E 024°04'612.6
2017-Nov-15 18:29N 59°39' E 023°52'612.6
2017-Nov-15 18:00N 59°37' E 023°41'612.4
2017-Nov-15 17:30N 59°35' E 023°29'612.5
2017-Nov-15 17:00N 59°33' E 023°18'712.4
2017-Nov-15 16:29N 59°31' E 023°06'  
Track history (hours):
 
Tides and Currents Weather Stations Pressure Air Temp Water Temp Dewpoint Dewpoint Depression Visibility Wind Speed Wind Dir Waves Ship Positions

Corona

Last reported at 2017-Nov-17 20:59 UTC. Time now 2017-Nov-17 21:19 UTC.
Position N 59°53' E 030°11'.

Length 187 m; draft 6.4 m.

Type: Cargo ship. MMSI: 538005490.

Date/timePositionNaut miles runAvg speedWind from/ knotsBaromVisibWave heightAir tempDewpointWater temp
2017-Nov-17 20:59N 59°53' E 030°11'0 0.0
2017-Nov-17 20:29N 59°53' E 030°11'0 0.0
2017-Nov-17 19:59N 59°53' E 030°11'0 0.0
2017-Nov-17 19:29N 59°53' E 030°11'0 0.0
2017-Nov-17 18:59N 59°53' E 030°11'0 0.0
2017-Nov-17 18:29N 59°53' E 030°11'0 0.0
2017-Nov-17 18:00N 59°53' E 030°11'0 0.0
2017-Nov-17 17:30N 59°53' E 030°11'0 0.0
2017-Nov-17 17:00N 59°53' E 030°11'0 0.0
2017-Nov-17 16:30N 59°53' E 030°11'0 0.0
2017-Nov-17 16:00N 59°53' E 030°11'0 0.0
2017-Nov-17 15:30N 59°53' E 030°11'0 0.0
2017-Nov-17 14:57N 59°53' E 030°11'0 0.0
2017-Nov-17 14:30N 59°53' E 030°11'0 0.0
2017-Nov-17 14:00N 59°53' E 030°11'0 0.0
2017-Nov-17 13:30N 59°53' E 030°11'0 0.0
2017-Nov-17 13:00N 59°53' E 030°11'0 0.0
2017-Nov-17 12:31N 59°53' E 030°11'0 0.0
2017-Nov-17 12:00N 59°53' E 030°11'0 0.0
2017-Nov-17 11:28N 59°53' E 030°11'0 0.0
2017-Nov-17 10:58N 59°53' E 030°11'0 0.0
2017-Nov-17 10:30N 59°53' E 030°11'0 0.0
2017-Nov-17 09:57N 59°53' E 030°11'0 0.0
2017-Nov-17 09:31N 59°53' E 030°11'0 0.0
2017-Nov-17 09:00N 59°53' E 030°11'0 0.0
2017-Nov-17 08:30N 59°53' E 030°11'0 0.0
2017-Nov-17 08:00N 59°53' E 030°11'0 0.0
2017-Nov-17 07:30N 59°53' E 030°11'0 0.0
2017-Nov-17 07:00N 59°53' E 030°11'0 0.0
2017-Nov-17 06:27N 59°53' E 030°11'0 0.0
2017-Nov-17 06:00N 59°53' E 030°11'0 0.0
2017-Nov-17 05:27N 59°53' E 030°11'0 0.0
2017-Nov-17 04:57N 59°53' E 030°11'0 0.0
2017-Nov-17 04:30N 59°53' E 030°11'0 0.0
2017-Nov-17 04:00N 59°53' E 030°11'0 0.0
2017-Nov-17 03:30N 59°53' E 030°11'0 0.0
2017-Nov-17 03:00N 59°53' E 030°11'0 0.0
2017-Nov-17 02:30N 59°53' E 030°11'0 0.0
2017-Nov-17 02:00N 59°53' E 030°11'0 0.0
2017-Nov-17 01:30N 59°53' E 030°11'0 0.0
2017-Nov-17 01:00N 59°53' E 030°11'0 0.0
2017-Nov-17 00:30N 59°53' E 030°11'0 0.0
2017-Nov-17 00:00N 59°53' E 030°11'0 0.0
2017-Nov-16 23:30N 59°53' E 030°11'0 0.0
2017-Nov-16 22:57N 59°53' E 030°11'0 0.0
2017-Nov-16 22:30N 59°53' E 030°11'0 0.0
2017-Nov-16 22:00N 59°53' E 030°11'0 0.0
2017-Nov-16 21:31N 59°53' E 030°11'0 0.0
2017-Nov-16 21:00N 59°53' E 030°11'0 0.0
2017-Nov-16 20:30N 59°53' E 030°11'0 0.0
2017-Nov-16 19:52N 59°53' E 030°11'0 0.0
2017-Nov-16 19:28N 59°53' E 030°11'0 0.0
2017-Nov-16 18:58N 59°53' E 030°11'0 0.0
2017-Nov-16 18:23N 59°53' E 030°11'0 0.0
2017-Nov-16 17:58N 59°53' E 030°11'0 0.0
2017-Nov-16 17:28N 59°53' E 030°11'0 0.0
2017-Nov-16 16:58N 59°53' E 030°11'0 0.0
2017-Nov-16 16:30N 59°53' E 030°11'0 0.0
2017-Nov-16 16:00N 59°53' E 030°11'0 0.0
2017-Nov-16 15:30N 59°53' E 030°11'0 0.4
2017-Nov-16 15:00N 59°53' E 030°12'2 4.1
2017-Nov-16 14:30N 59°54' E 030°08'4 7.0
2017-Nov-16 14:00N 59°55' E 030°01'510.3
2017-Nov-16 13:30N 59°57' E 029°52'510.2
2017-Nov-16 13:00N 59°59' E 029°43'510.4
2017-Nov-16 12:30N 60°01' E 029°33'4 7.2
2017-Nov-16 11:53N 60°01' E 029°24'1 0.7
2017-Nov-16 10:54N 60°02' E 029°24'0 0.1
2017-Nov-16 10:27N 60°02' E 029°24'0 0.0
2017-Nov-16 09:58N 60°02' E 029°24'0 0.0
2017-Nov-16 09:31N 60°02' E 029°24'1 1.5
2017-Nov-16 08:52N 60°02' E 029°22'3 8.3
2017-Nov-16 08:28N 60°02' E 029°15'611.8
2017-Nov-16 08:00N 60°02' E 029°04'612.1
2017-Nov-16 07:30N 60°02' E 028°53'612.1
2017-Nov-16 07:00N 60°02' E 028°40'612.1
2017-Nov-16 06:30N 60°03' E 028°28'611.9
2017-Nov-16 06:00N 60°06' E 028°18'611.7
2017-Nov-16 05:30N 60°08' E 028°07'612.1
2017-Nov-16 05:00N 60°10' E 027°56'611.4
2017-Nov-16 04:31N 60°10' E 027°44'611.4
2017-Nov-16 04:00N 60°07' E 027°34'611.6
2017-Nov-16 03:30N 60°04' E 027°24'611.7
2017-Nov-16 03:00N 60°01' E 027°14'611.6
2017-Nov-16 02:31N 59°58' E 027°04'611.9
2017-Nov-16 02:01N 59°59' E 026°53'612.2
2017-Nov-16 01:31N 59°59' E 026°41'612.1
2017-Nov-16 01:00N 59°58' E 026°29'612.2
2017-Nov-16 00:30N 59°57' E 026°17'2512.2
2017-Nov-15 22:27N 59°51' E 025°28'612.5
2017-Nov-15 22:00N 59°50' E 025°17'712.5
2017-Nov-15 21:27N 59°48' E 025°04'612.6
2017-Nov-15 21:00N 59°47' E 024°53'713.6
2017-Nov-15 20:30N 59°45' E 024°40'611.7
2017-Nov-15 20:00N 59°44' E 024°28'612.5
2017-Nov-15 19:30N 59°43' E 024°16'712.6
2017-Nov-15 18:58N 59°41' E 024°04'612.6
2017-Nov-15 18:29N 59°39' E 023°52'612.6
2017-Nov-15 18:00N 59°37' E 023°41'612.4
2017-Nov-15 17:30N 59°35' E 023°29'612.5
2017-Nov-15 17:00N 59°33' E 023°18'712.4
2017-Nov-15 16:29N 59°31' E 023°06'  

Dump ship's entire track history